sensor_id;sensor_type;location;lat;lon;timestamp;P1;durP1;ratioP1;P2;durP2;ratioP2
42124;SDS011;27787;44.594;11.046;2022-10-31T00:02:32;24.80;;;10.15;;
42124;SDS011;27787;44.594;11.046;2022-10-31T00:05:16;21.92;;;10.85;;
42124;SDS011;27787;44.594;11.046;2022-10-31T00:08:00;21.75;;;9.05;;
42124;SDS011;27787;44.594;11.046;2022-10-31T00:10:44;18.73;;;9.32;;
42124;SDS011;27787;44.594;11.046;2022-10-31T00:13:29;20.75;;;8.90;;
42124;SDS011;27787;44.594;11.046;2022-10-31T00:16:15;20.90;;;8.35;;
42124;SDS011;27787;44.594;11.046;2022-10-31T00:19:02;18.17;;;8.13;;
42124;SDS011;27787;44.594;11.046;2022-10-31T00:21:47;19.17;;;8.50;;
42124;SDS011;27787;44.594;11.046;2022-10-31T00:24:31;15.27;;;7.60;;
42124;SDS011;27787;44.594;11.046;2022-10-31T00:27:15;17.45;;;8.73;;
42124;SDS011;27787;44.594;11.046;2022-10-31T00:30:00;18.15;;;8.15;;
42124;SDS011;27787;44.594;11.046;2022-10-31T00:32:44;19.08;;;8.98;;
42124;SDS011;27787;44.594;11.046;2022-10-31T00:35:28;15.60;;;8.10;;
42124;SDS011;27787;44.594;11.046;2022-10-31T00:38:12;19.63;;;8.13;;
42124;SDS011;27787;44.594;11.046;2022-10-31T00:40:56;17.85;;;8.05;;
42124;SDS011;27787;44.594;11.046;2022-10-31T00:43:41;18.17;;;9.68;;
42124;SDS011;27787;44.594;11.046;2022-10-31T00:46:27;17.58;;;8.70;;
42124;SDS011;27787;44.594;11.046;2022-10-31T00:49:11;16.65;;;8.00;;
42124;SDS011;27787;44.594;11.046;2022-10-31T00:51:56;16.35;;;8.55;;
42124;SDS011;27787;44.594;11.046;2022-10-31T00:54:40;15.10;;;8.07;;
42124;SDS011;27787;44.594;11.046;2022-10-31T00:57:24;14.68;;;7.68;;
42124;SDS011;27787;44.594;11.046;2022-10-31T01:00:10;19.35;;;8.32;;
42124;SDS011;27787;44.594;11.046;2022-10-31T01:02:55;16.88;;;7.72;;
42124;SDS011;27787;44.594;11.046;2022-10-31T01:05:39;13.82;;;7.93;;
42124;SDS011;27787;44.594;11.046;2022-10-31T01:08:23;17.70;;;8.20;;
42124;SDS011;27787;44.594;11.046;2022-10-31T01:11:15;17.35;;;8.23;;
42124;SDS011;27787;44.594;11.046;2022-10-31T01:14:03;14.75;;;7.70;;
42124;SDS011;27787;44.594;11.046;2022-10-31T01:16:49;15.93;;;7.90;;
42124;SDS011;27787;44.594;11.046;2022-10-31T01:19:33;14.23;;;7.55;;
42124;SDS011;27787;44.594;11.046;2022-10-31T01:22:17;15.75;;;7.18;;
42124;SDS011;27787;44.594;11.046;2022-10-31T01:25:01;14.73;;;7.65;;
42124;SDS011;27787;44.594;11.046;2022-10-31T01:27:46;16.05;;;6.47;;
42124;SDS011;27787;44.594;11.046;2022-10-31T01:30:30;15.13;;;6.28;;
42124;SDS011;27787;44.594;11.046;2022-10-31T01:33:14;16.17;;;6.40;;
42124;SDS011;27787;44.594;11.046;2022-10-31T01:35:58;12.40;;;6.07;;
42124;SDS011;27787;44.594;11.046;2022-10-31T01:38:43;17.85;;;5.97;;
42124;SDS011;27787;44.594;11.046;2022-10-31T01:41:30;17.38;;;6.22;;
42124;SDS011;27787;44.594;11.046;2022-10-31T01:49:57;11.77;;;5.68;;
42124;SDS011;27787;44.594;11.046;2022-10-31T01:52:45;12.55;;;6.10;;
42124;SDS011;27787;44.594;11.046;2022-10-31T01:55:33;12.13;;;4.90;;
42124;SDS011;27787;44.594;11.046;2022-10-31T01:58:20;9.32;;;4.70;;
42124;SDS011;27787;44.594;11.046;2022-10-31T02:01:09;9.13;;;4.90;;
42124;SDS011;27787;44.594;11.046;2022-10-31T02:03:53;12.00;;;5.18;;
42124;SDS011;27787;44.594;11.046;2022-10-31T02:06:56;12.40;;;5.63;;
42124;SDS011;27787;44.594;11.046;2022-10-31T02:09:46;12.25;;;5.22;;
42124;SDS011;27787;44.594;11.046;2022-10-31T02:12:34;17.75;;;6.00;;
42124;SDS011;27787;44.594;11.046;2022-10-31T02:15:22;11.68;;;5.80;;
42124;SDS011;27787;44.594;11.046;2022-10-31T02:18:06;12.90;;;5.68;;
42124;SDS011;27787;44.594;11.046;2022-10-31T02:35:59;12.02;;;5.28;;
42124;SDS011;27787;44.594;11.046;2022-10-31T02:39:08;14.35;;;5.53;;
42124;SDS011;27787;44.594;11.046;2022-10-31T02:42:13;9.35;;;4.88;;
42124;SDS011;27787;44.594;11.046;2022-10-31T02:48:29;16.90;;;5.25;;
42124;SDS011;27787;44.594;11.046;2022-10-31T02:51:19;11.23;;;4.47;;
42124;SDS011;27787;44.594;11.046;2022-10-31T02:54:15;9.88;;;5.22;;
42124;SDS011;27787;44.594;11.046;2022-10-31T02:57:02;11.27;;;4.93;;
42124;SDS011;27787;44.594;11.046;2022-10-31T02:59:52;15.82;;;5.13;;
42124;SDS011;27787;44.594;11.046;2022-10-31T03:06:01;13.77;;;4.97;;
42124;SDS011;27787;44.594;11.046;2022-10-31T03:12:07;11.27;;;3.95;;
42124;SDS011;27787;44.594;11.046;2022-10-31T03:15:01;9.40;;;4.32;;
42124;SDS011;27787;44.594;11.046;2022-10-31T03:18:11;11.27;;;3.97;;
42124;SDS011;27787;44.594;11.046;2022-10-31T03:21:22;7.43;;;4.18;;
42124;SDS011;27787;44.594;11.046;2022-10-31T03:24:07;8.38;;;4.53;;
42124;SDS011;27787;44.594;11.046;2022-10-31T03:26:54;10.65;;;4.93;;
42124;SDS011;27787;44.594;11.046;2022-10-31T03:29:41;10.63;;;4.50;;
42124;SDS011;27787;44.594;11.046;2022-10-31T03:32:30;11.32;;;4.38;;
42124;SDS011;27787;44.594;11.046;2022-10-31T03:35:22;9.75;;;4.00;;
42124;SDS011;27787;44.594;11.046;2022-10-31T03:38:07;10.43;;;3.10;;
42124;SDS011;27787;44.594;11.046;2022-10-31T03:40:53;10.38;;;3.58;;
42124;SDS011;27787;44.594;11.046;2022-10-31T03:43:47;6.25;;;3.15;;
42124;SDS011;27787;44.594;11.046;2022-10-31T03:46:38;6.35;;;3.00;;
42124;SDS011;27787;44.594;11.046;2022-10-31T03:49:22;7.63;;;3.27;;
42124;SDS011;27787;44.594;11.046;2022-10-31T03:55:05;5.95;;;2.70;;
42124;SDS011;27787;44.594;11.046;2022-10-31T04:01:04;7.18;;;3.20;;
42124;SDS011;27787;44.594;11.046;2022-10-31T04:03:50;6.57;;;3.17;;
42124;SDS011;27787;44.594;11.046;2022-10-31T04:06:36;5.82;;;2.63;;
42124;SDS011;27787;44.594;11.046;2022-10-31T04:09:23;7.25;;;3.17;;
42124;SDS011;27787;44.594;11.046;2022-10-31T04:12:11;5.55;;;2.67;;
42124;SDS011;27787;44.594;11.046;2022-10-31T04:15:17;7.85;;;3.25;;
42124;SDS011;27787;44.594;11.046;2022-10-31T04:18:03;8.55;;;2.72;;
42124;SDS011;27787;44.594;11.046;2022-10-31T04:20:49;6.47;;;3.22;;
42124;SDS011;27787;44.594;11.046;2022-10-31T04:23:44;7.05;;;3.00;;
42124;SDS011;27787;44.594;11.046;2022-10-31T04:26:36;6.05;;;2.75;;
42124;SDS011;27787;44.594;11.046;2022-10-31T04:29:20;8.30;;;2.78;;
42124;SDS011;27787;44.594;11.046;2022-10-31T04:32:05;8.32;;;3.30;;
42124;SDS011;27787;44.594;11.046;2022-10-31T04:34:49;9.45;;;2.95;;
42124;SDS011;27787;44.594;11.046;2022-10-31T04:37:34;8.48;;;2.80;;
42124;SDS011;27787;44.594;11.046;2022-10-31T04:40:19;5.05;;;2.90;;
42124;SDS011;27787;44.594;11.046;2022-10-31T04:43:12;8.85;;;2.83;;
42124;SDS011;27787;44.594;11.046;2022-10-31T04:45:59;6.57;;;2.90;;
42124;SDS011;27787;44.594;11.046;2022-10-31T04:48:44;12.95;;;3.72;;
42124;SDS011;27787;44.594;11.046;2022-10-31T04:51:29;6.50;;;3.30;;
42124;SDS011;27787;44.594;11.046;2022-10-31T04:54:13;9.07;;;2.78;;
42124;SDS011;27787;44.594;11.046;2022-10-31T04:57:12;4.07;;;2.60;;
42124;SDS011;27787;44.594;11.046;2022-10-31T04:59:57;9.70;;;2.95;;
42124;SDS011;27787;44.594;11.046;2022-10-31T05:02:43;4.90;;;3.00;;
42124;SDS011;27787;44.594;11.046;2022-10-31T05:05:31;10.73;;;3.45;;
42124;SDS011;27787;44.594;11.046;2022-10-31T05:08:18;5.97;;;3.22;;
42124;SDS011;27787;44.594;11.046;2022-10-31T05:11:06;5.63;;;2.95;;
42124;SDS011;27787;44.594;11.046;2022-10-31T05:13:50;6.93;;;2.63;;
42124;SDS011;27787;44.594;11.046;2022-10-31T05:16:55;5.43;;;2.72;;
42124;SDS011;27787;44.594;11.046;2022-10-31T05:20:09;6.32;;;2.80;;
42124;SDS011;27787;44.594;11.046;2022-10-31T05:23:20;9.07;;;2.67;;
42124;SDS011;27787;44.594;11.046;2022-10-31T05:26:04;5.50;;;2.42;;
42124;SDS011;27787;44.594;11.046;2022-10-31T05:28:48;7.65;;;2.75;;
42124;SDS011;27787;44.594;11.046;2022-10-31T05:31:33;7.10;;;3.42;;
42124;SDS011;27787;44.594;11.046;2022-10-31T05:34:18;5.38;;;2.28;;
42124;SDS011;27787;44.594;11.046;2022-10-31T05:37:02;13.00;;;3.08;;
42124;SDS011;27787;44.594;11.046;2022-10-31T05:39:46;9.90;;;2.75;;
42124;SDS011;27787;44.594;11.046;2022-10-31T05:42:33;9.60;;;2.63;;
42124;SDS011;27787;44.594;11.046;2022-10-31T05:45:18;7.07;;;2.75;;
42124;SDS011;27787;44.594;11.046;2022-10-31T05:48:09;11.07;;;3.28;;
42124;SDS011;27787;44.594;11.046;2022-10-31T05:51:12;6.75;;;2.88;;
42124;SDS011;27787;44.594;11.046;2022-10-31T05:53:56;9.38;;;3.75;;
42124;SDS011;27787;44.594;11.046;2022-10-31T05:56:40;10.05;;;4.03;;
42124;SDS011;27787;44.594;11.046;2022-10-31T05:59:24;17.40;;;4.72;;
42124;SDS011;27787;44.594;11.046;2022-10-31T06:02:08;7.03;;;3.45;;
42124;SDS011;27787;44.594;11.046;2022-10-31T06:05:28;9.00;;;3.65;;
42124;SDS011;27787;44.594;11.046;2022-10-31T06:08:14;7.55;;;3.28;;
42124;SDS011;27787;44.594;11.046;2022-10-31T06:10:59;9.88;;;3.22;;
42124;SDS011;27787;44.594;11.046;2022-10-31T06:14:04;5.82;;;3.03;;
42124;SDS011;27787;44.594;11.046;2022-10-31T06:17:08;6.07;;;2.83;;
42124;SDS011;27787;44.594;11.046;2022-10-31T06:20:05;6.68;;;3.22;;
42124;SDS011;27787;44.594;11.046;2022-10-31T06:22:55;7.70;;;3.13;;
42124;SDS011;27787;44.594;11.046;2022-10-31T06:25:40;9.68;;;2.92;;
42124;SDS011;27787;44.594;11.046;2022-10-31T06:28:28;7.35;;;3.40;;
42124;SDS011;27787;44.594;11.046;2022-10-31T06:31:19;6.65;;;2.88;;
42124;SDS011;27787;44.594;11.046;2022-10-31T06:34:03;9.18;;;2.83;;
42124;SDS011;27787;44.594;11.046;2022-10-31T06:36:47;6.88;;;2.60;;
42124;SDS011;27787;44.594;11.046;2022-10-31T06:39:32;13.60;;;3.40;;
42124;SDS011;27787;44.594;11.046;2022-10-31T06:42:16;11.35;;;3.22;;
42124;SDS011;27787;44.594;11.046;2022-10-31T06:45:01;14.32;;;3.38;;
42124;SDS011;27787;44.594;11.046;2022-10-31T06:47:52;14.68;;;3.08;;
42124;SDS011;27787;44.594;11.046;2022-10-31T06:50:43;7.00;;;3.45;;
42124;SDS011;27787;44.594;11.046;2022-10-31T06:53:31;5.28;;;2.60;;
42124;SDS011;27787;44.594;11.046;2022-10-31T06:56:16;21.25;;;3.40;;
42124;SDS011;27787;44.594;11.046;2022-10-31T06:59:05;9.95;;;3.22;;
42124;SDS011;27787;44.594;11.046;2022-10-31T07:02:09;16.80;;;3.70;;
42124;SDS011;27787;44.594;11.046;2022-10-31T07:04:55;14.43;;;3.75;;
42124;SDS011;27787;44.594;11.046;2022-10-31T07:07:40;11.02;;;3.80;;
42124;SDS011;27787;44.594;11.046;2022-10-31T07:10:25;14.50;;;3.60;;
42124;SDS011;27787;44.594;11.046;2022-10-31T07:13:17;17.30;;;4.05;;
42124;SDS011;27787;44.594;11.046;2022-10-31T07:16:08;7.53;;;3.20;;
42124;SDS011;27787;44.594;11.046;2022-10-31T07:18:55;5.50;;;2.72;;
42124;SDS011;27787;44.594;11.046;2022-10-31T07:21:39;10.05;;;3.80;;
42124;SDS011;27787;44.594;11.046;2022-10-31T07:24:24;5.63;;;2.70;;
42124;SDS011;27787;44.594;11.046;2022-10-31T07:27:47;10.70;;;3.50;;
42124;SDS011;27787;44.594;11.046;2022-10-31T07:30:31;10.55;;;3.55;;
42124;SDS011;27787;44.594;11.046;2022-10-31T07:33:16;11.30;;;3.38;;
42124;SDS011;27787;44.594;11.046;2022-10-31T07:36:22;8.35;;;2.85;;
42124;SDS011;27787;44.594;11.046;2022-10-31T07:39:09;9.07;;;3.17;;
42124;SDS011;27787;44.594;11.046;2022-10-31T07:41:54;11.30;;;4.13;;
42124;SDS011;27787;44.594;11.046;2022-10-31T07:44:38;12.45;;;3.85;;
42124;SDS011;27787;44.594;11.046;2022-10-31T07:47:41;11.73;;;4.65;;
42124;SDS011;27787;44.594;11.046;2022-10-31T07:50:53;13.25;;;5.50;;
42124;SDS011;27787;44.594;11.046;2022-10-31T07:53:58;11.03;;;5.13;;
42124;SDS011;27787;44.594;11.046;2022-10-31T07:56:46;22.48;;;7.00;;
42124;SDS011;27787;44.594;11.046;2022-10-31T07:59:31;26.60;;;7.82;;
42124;SDS011;27787;44.594;11.046;2022-10-31T08:02:17;18.67;;;6.78;;
42124;SDS011;27787;44.594;11.046;2022-10-31T08:05:04;13.68;;;6.30;;
42124;SDS011;27787;44.594;11.046;2022-10-31T08:08:09;22.45;;;6.65;;
42124;SDS011;27787;44.594;11.046;2022-10-31T08:10:53;14.25;;;6.93;;
42124;SDS011;27787;44.594;11.046;2022-10-31T08:13:39;16.63;;;6.95;;
42124;SDS011;27787;44.594;11.046;2022-10-31T08:16:24;18.38;;;7.40;;
42124;SDS011;27787;44.594;11.046;2022-10-31T08:19:13;20.15;;;7.90;;
42124;SDS011;27787;44.594;11.046;2022-10-31T08:21:57;23.10;;;8.40;;
42124;SDS011;27787;44.594;11.046;2022-10-31T08:24:42;25.45;;;8.20;;
42124;SDS011;27787;44.594;11.046;2022-10-31T08:27:26;27.73;;;10.55;;
42124;SDS011;27787;44.594;11.046;2022-10-31T08:30:13;15.85;;;8.80;;
42124;SDS011;27787;44.594;11.046;2022-10-31T08:36:15;20.85;;;9.10;;
42124;SDS011;27787;44.594;11.046;2022-10-31T08:39:19;20.05;;;9.30;;
42124;SDS011;27787;44.594;11.046;2022-10-31T08:42:04;12.43;;;7.40;;
42124;SDS011;27787;44.594;11.046;2022-10-31T08:44:48;14.85;;;7.30;;
42124;SDS011;27787;44.594;11.046;2022-10-31T08:47:32;16.23;;;7.20;;
42124;SDS011;27787;44.594;11.046;2022-10-31T08:50:17;15.10;;;7.00;;
42124;SDS011;27787;44.594;11.046;2022-10-31T08:53:17;14.93;;;6.65;;
42124;SDS011;27787;44.594;11.046;2022-10-31T08:56:07;15.63;;;6.65;;
42124;SDS011;27787;44.594;11.046;2022-10-31T08:58:53;15.32;;;6.20;;
42124;SDS011;27787;44.594;11.046;2022-10-31T09:01:45;15.90;;;6.40;;
42124;SDS011;27787;44.594;11.046;2022-10-31T09:04:29;14.90;;;6.60;;
42124;SDS011;27787;44.594;11.046;2022-10-31T09:09:59;18.73;;;6.28;;
42124;SDS011;27787;44.594;11.046;2022-10-31T09:12:54;27.33;;;7.72;;
42124;SDS011;27787;44.594;11.046;2022-10-31T09:16:01;21.85;;;8.13;;
42124;SDS011;27787;44.594;11.046;2022-10-31T09:18:45;21.33;;;8.35;;
42124;SDS011;27787;44.594;11.046;2022-10-31T09:21:33;17.73;;;8.38;;
42124;SDS011;27787;44.594;11.046;2022-10-31T09:24:17;16.15;;;7.22;;
42124;SDS011;27787;44.594;11.046;2022-10-31T09:27:01;25.05;;;7.93;;
42124;SDS011;27787;44.594;11.046;2022-10-31T09:29:46;25.20;;;8.55;;
42124;SDS011;27787;44.594;11.046;2022-10-31T09:32:30;23.43;;;8.57;;
42124;SDS011;27787;44.594;11.046;2022-10-31T09:35:15;20.95;;;9.32;;
42124;SDS011;27787;44.594;11.046;2022-10-31T09:38:03;23.10;;;9.75;;
42124;SDS011;27787;44.594;11.046;2022-10-31T09:47:05;27.23;;;10.45;;
42124;SDS011;27787;44.594;11.046;2022-10-31T09:50:18;23.63;;;10.23;;
42124;SDS011;27787;44.594;11.046;2022-10-31T09:53:16;27.27;;;12.13;;
42124;SDS011;27787;44.594;11.046;2022-10-31T09:56:10;23.95;;;10.43;;
42124;SDS011;27787;44.594;11.046;2022-10-31T09:59:01;32.95;;;11.85;;
42124;SDS011;27787;44.594;11.046;2022-10-31T10:02:05;24.23;;;10.18;;
42124;SDS011;27787;44.594;11.046;2022-10-31T10:05:04;30.90;;;13.27;;
42124;SDS011;27787;44.594;11.046;2022-10-31T10:08:01;24.30;;;11.52;;
42124;SDS011;27787;44.594;11.046;2022-10-31T10:20:18;26.65;;;11.55;;
42124;SDS011;27787;44.594;11.046;2022-10-31T10:26:37;28.85;;;12.35;;
42124;SDS011;27787;44.594;11.046;2022-10-31T10:32:25;29.77;;;10.95;;
42124;SDS011;27787;44.594;11.046;2022-10-31T10:35:33;28.17;;;11.18;;
42124;SDS011;27787;44.594;11.046;2022-10-31T10:38:24;27.52;;;11.40;;
42124;SDS011;27787;44.594;11.046;2022-10-31T10:41:18;24.38;;;11.00;;
42124;SDS011;27787;44.594;11.046;2022-10-31T10:44:05;22.58;;;11.23;;
42124;SDS011;27787;44.594;11.046;2022-10-31T10:46:54;33.53;;;11.77;;
42124;SDS011;27787;44.594;11.046;2022-10-31T10:50:00;29.67;;;10.82;;
42124;SDS011;27787;44.594;11.046;2022-10-31T10:59:00;21.58;;;9.10;;
42124;SDS011;27787;44.594;11.046;2022-10-31T11:01:48;18.52;;;8.65;;
42124;SDS011;27787;44.594;11.046;2022-10-31T11:04:35;19.73;;;8.55;;
42124;SDS011;27787;44.594;11.046;2022-10-31T11:10:05;23.52;;;9.23;;
42124;SDS011;27787;44.594;11.046;2022-10-31T11:12:59;23.55;;;8.93;;
42124;SDS011;27787;44.594;11.046;2022-10-31T11:15:52;24.88;;;9.02;;
42124;SDS011;27787;44.594;11.046;2022-10-31T11:18:42;21.63;;;9.38;;
42124;SDS011;27787;44.594;11.046;2022-10-31T11:21:29;30.05;;;10.10;;
42124;SDS011;27787;44.594;11.046;2022-10-31T11:24:18;17.55;;;7.55;;
42124;SDS011;27787;44.594;11.046;2022-10-31T11:30:03;15.68;;;6.07;;
42124;SDS011;27787;44.594;11.046;2022-10-31T11:32:49;19.90;;;7.53;;
42124;SDS011;27787;44.594;11.046;2022-10-31T11:35:38;17.83;;;7.50;;
42124;SDS011;27787;44.594;11.046;2022-10-31T11:38:32;19.33;;;8.93;;
42124;SDS011;27787;44.594;11.046;2022-10-31T11:41:30;20.27;;;8.52;;
42124;SDS011;27787;44.594;11.046;2022-10-31T11:47:01;19.17;;;8.15;;
42124;SDS011;27787;44.594;11.046;2022-10-31T11:49:49;18.88;;;9.15;;
42124;SDS011;27787;44.594;11.046;2022-10-31T11:52:33;14.93;;;6.90;;
42124;SDS011;27787;44.594;11.046;2022-10-31T11:55:37;16.42;;;7.50;;
42124;SDS011;27787;44.594;11.046;2022-10-31T11:58:24;14.63;;;7.47;;
42124;SDS011;27787;44.594;11.046;2022-10-31T12:01:31;18.00;;;8.23;;
42124;SDS011;27787;44.594;11.046;2022-10-31T12:04:15;14.38;;;6.50;;
42124;SDS011;27787;44.594;11.046;2022-10-31T12:09:44;18.88;;;6.93;;
42124;SDS011;27787;44.594;11.046;2022-10-31T12:15:37;19.05;;;8.00;;
42124;SDS011;27787;44.594;11.046;2022-10-31T12:27:51;21.95;;;9.57;;
42124;SDS011;27787;44.594;11.046;2022-10-31T12:37:28;21.33;;;10.20;;
42124;SDS011;27787;44.594;11.046;2022-10-31T12:40:31;20.40;;;10.48;;
42124;SDS011;27787;44.594;11.046;2022-10-31T12:52:37;26.88;;;11.23;;
42124;SDS011;27787;44.594;11.046;2022-10-31T12:58:13;23.05;;;10.18;;
42124;SDS011;27787;44.594;11.046;2022-10-31T13:06:56;26.60;;;10.38;;
42124;SDS011;27787;44.594;11.046;2022-10-31T13:09:46;17.77;;;9.18;;
42124;SDS011;27787;44.594;11.046;2022-10-31T13:12:37;23.67;;;8.77;;
42124;SDS011;27787;44.594;11.046;2022-10-31T13:15:27;23.52;;;9.30;;
42124;SDS011;27787;44.594;11.046;2022-10-31T13:18:20;28.55;;;9.55;;
42124;SDS011;27787;44.594;11.046;2022-10-31T13:21:13;17.23;;;8.43;;
42124;SDS011;27787;44.594;11.046;2022-10-31T13:24:03;17.65;;;8.38;;
42124;SDS011;27787;44.594;11.046;2022-10-31T13:26:53;17.02;;;7.93;;
42124;SDS011;27787;44.594;11.046;2022-10-31T13:29:39;23.45;;;8.13;;
42124;SDS011;27787;44.594;11.046;2022-10-31T13:32:40;17.45;;;7.82;;
42124;SDS011;27787;44.594;11.046;2022-10-31T13:41:47;23.05;;;8.55;;
42124;SDS011;27787;44.594;11.046;2022-10-31T13:44:51;23.38;;;8.55;;
42124;SDS011;27787;44.594;11.046;2022-10-31T13:47:35;18.88;;;7.88;;
42124;SDS011;27787;44.594;11.046;2022-10-31T13:50:21;20.20;;;8.35;;
42124;SDS011;27787;44.594;11.046;2022-10-31T13:58:59;18.98;;;7.82;;
42124;SDS011;27787;44.594;11.046;2022-10-31T14:01:48;24.13;;;7.78;;
42124;SDS011;27787;44.594;11.046;2022-10-31T14:04:44;14.98;;;7.03;;
42124;SDS011;27787;44.594;11.046;2022-10-31T14:07:32;14.27;;;7.43;;
42124;SDS011;27787;44.594;11.046;2022-10-31T14:10:21;14.70;;;7.17;;
42124;SDS011;27787;44.594;11.046;2022-10-31T14:13:24;17.05;;;6.97;;
42124;SDS011;27787;44.594;11.046;2022-10-31T14:16:25;15.15;;;6.60;;
42124;SDS011;27787;44.594;11.046;2022-10-31T14:19:18;21.98;;;7.45;;
42124;SDS011;27787;44.594;11.046;2022-10-31T14:22:18;15.32;;;7.32;;
42124;SDS011;27787;44.594;11.046;2022-10-31T14:28:21;14.45;;;7.55;;
42124;SDS011;27787;44.594;11.046;2022-10-31T14:34:32;17.52;;;7.10;;
42124;SDS011;27787;44.594;11.046;2022-10-31T14:40:35;16.38;;;7.38;;
42124;SDS011;27787;44.594;11.046;2022-10-31T14:52:39;14.88;;;7.40;;
42124;SDS011;27787;44.594;11.046;2022-10-31T14:55:26;16.90;;;7.32;;
42124;SDS011;27787;44.594;11.046;2022-10-31T14:58:12;19.02;;;7.47;;
42124;SDS011;27787;44.594;11.046;2022-10-31T15:01:02;19.55;;;7.32;;
42124;SDS011;27787;44.594;11.046;2022-10-31T15:03:47;21.52;;;8.63;;
42124;SDS011;27787;44.594;11.046;2022-10-31T15:06:37;13.55;;;7.15;;
42124;SDS011;27787;44.594;11.046;2022-10-31T15:09:30;17.48;;;7.63;;
42124;SDS011;27787;44.594;11.046;2022-10-31T15:15:11;17.65;;;8.15;;
42124;SDS011;27787;44.594;11.046;2022-10-31T15:17:58;16.55;;;7.40;;
42124;SDS011;27787;44.594;11.046;2022-10-31T15:20:43;22.38;;;8.52;;
42124;SDS011;27787;44.594;11.046;2022-10-31T15:23:29;19.95;;;7.85;;
42124;SDS011;27787;44.594;11.046;2022-10-31T15:26:17;18.50;;;7.70;;
42124;SDS011;27787;44.594;11.046;2022-10-31T15:29:04;20.23;;;7.15;;
42124;SDS011;27787;44.594;11.046;2022-10-31T15:32:16;21.15;;;7.82;;
42124;SDS011;27787;44.594;11.046;2022-10-31T15:35:08;25.77;;;8.32;;
42124;SDS011;27787;44.594;11.046;2022-10-31T15:37:53;15.70;;;7.30;;
42124;SDS011;27787;44.594;11.046;2022-10-31T15:43:22;12.20;;;5.82;;
42124;SDS011;27787;44.594;11.046;2022-10-31T15:46:07;13.38;;;7.00;;
42124;SDS011;27787;44.594;11.046;2022-10-31T15:48:53;14.65;;;7.03;;
42124;SDS011;27787;44.594;11.046;2022-10-31T15:51:38;20.33;;;8.05;;
42124;SDS011;27787;44.594;11.046;2022-10-31T15:54:21;15.82;;;6.63;;
42124;SDS011;27787;44.594;11.046;2022-10-31T15:57:09;21.13;;;7.57;;
42124;SDS011;27787;44.594;11.046;2022-10-31T15:59:54;21.55;;;8.15;;
42124;SDS011;27787;44.594;11.046;2022-10-31T16:02:39;18.38;;;7.00;;
42124;SDS011;27787;44.594;11.046;2022-10-31T16:05:23;19.52;;;7.82;;
42124;SDS011;27787;44.594;11.046;2022-10-31T16:14:25;16.00;;;7.55;;
42124;SDS011;27787;44.594;11.046;2022-10-31T16:17:13;18.65;;;8.27;;
42124;SDS011;27787;44.594;11.046;2022-10-31T16:19:59;18.65;;;7.53;;
42124;SDS011;27787;44.594;11.046;2022-10-31T16:22:48;19.73;;;9.95;;
42124;SDS011;27787;44.594;11.046;2022-10-31T16:25:36;33.97;;;12.10;;
42124;SDS011;27787;44.594;11.046;2022-10-31T16:28:22;30.52;;;16.42;;
42124;SDS011;27787;44.594;11.046;2022-10-31T16:31:14;33.70;;;12.73;;
42124;SDS011;27787;44.594;11.046;2022-10-31T16:34:02;31.58;;;13.38;;
42124;SDS011;27787;44.594;11.046;2022-10-31T16:37:03;31.50;;;12.00;;
42124;SDS011;27787;44.594;11.046;2022-10-31T16:39:47;30.27;;;12.45;;
42124;SDS011;27787;44.594;11.046;2022-10-31T16:42:30;28.88;;;11.13;;
42124;SDS011;27787;44.594;11.046;2022-10-31T16:45:24;21.35;;;9.18;;
42124;SDS011;27787;44.594;11.046;2022-10-31T16:48:17;22.92;;;9.00;;
42124;SDS011;27787;44.594;11.046;2022-10-31T16:51:06;24.08;;;9.65;;
42124;SDS011;27787;44.594;11.046;2022-10-31T16:53:51;24.55;;;9.98;;
42124;SDS011;27787;44.594;11.046;2022-10-31T16:56:37;21.08;;;9.70;;
42124;SDS011;27787;44.594;11.046;2022-10-31T16:59:22;18.23;;;8.73;;
42124;SDS011;27787;44.594;11.046;2022-10-31T17:02:06;22.30;;;9.55;;
42124;SDS011;27787;44.594;11.046;2022-10-31T17:04:57;25.45;;;9.20;;
42124;SDS011;27787;44.594;11.046;2022-10-31T17:07:41;24.67;;;9.30;;
42124;SDS011;27787;44.594;11.046;2022-10-31T17:10:25;21.75;;;8.73;;
42124;SDS011;27787;44.594;11.046;2022-10-31T17:13:16;20.52;;;9.18;;
42124;SDS011;27787;44.594;11.046;2022-10-31T17:16:03;21.80;;;9.25;;
42124;SDS011;27787;44.594;11.046;2022-10-31T17:18:48;22.52;;;8.10;;
42124;SDS011;27787;44.594;11.046;2022-10-31T17:21:32;21.45;;;8.82;;
42124;SDS011;27787;44.594;11.046;2022-10-31T17:24:16;20.08;;;8.80;;
42124;SDS011;27787;44.594;11.046;2022-10-31T17:27:00;18.38;;;8.43;;
42124;SDS011;27787;44.594;11.046;2022-10-31T17:29:44;21.85;;;7.97;;
42124;SDS011;27787;44.594;11.046;2022-10-31T17:32:29;42.37;;;11.13;;
42124;SDS011;27787;44.594;11.046;2022-10-31T17:35:13;28.40;;;9.30;;
42124;SDS011;27787;44.594;11.046;2022-10-31T17:37:58;22.70;;;8.75;;
42124;SDS011;27787;44.594;11.046;2022-10-31T17:40:42;20.70;;;8.55;;
42124;SDS011;27787;44.594;11.046;2022-10-31T17:43:26;22.38;;;9.00;;
42124;SDS011;27787;44.594;11.046;2022-10-31T17:46:11;26.40;;;8.45;;
42124;SDS011;27787;44.594;11.046;2022-10-31T17:48:56;32.28;;;9.10;;
42124;SDS011;27787;44.594;11.046;2022-10-31T17:51:40;21.20;;;8.85;;
42124;SDS011;27787;44.594;11.046;2022-10-31T17:54:24;22.98;;;9.98;;
42124;SDS011;27787;44.594;11.046;2022-10-31T17:57:08;31.77;;;9.00;;
42124;SDS011;27787;44.594;11.046;2022-10-31T17:59:52;29.85;;;11.02;;
42124;SDS011;27787;44.594;11.046;2022-10-31T18:02:36;35.05;;;11.50;;
42124;SDS011;27787;44.594;11.046;2022-10-31T18:05:21;33.58;;;13.07;;
42124;SDS011;27787;44.594;11.046;2022-10-31T18:08:05;34.60;;;13.65;;
42124;SDS011;27787;44.594;11.046;2022-10-31T18:10:48;37.78;;;14.32;;
42124;SDS011;27787;44.594;11.046;2022-10-31T18:13:32;35.60;;;12.70;;
42124;SDS011;27787;44.594;11.046;2022-10-31T18:16:16;35.08;;;12.57;;
42124;SDS011;27787;44.594;11.046;2022-10-31T18:19:04;28.73;;;13.60;;
42124;SDS011;27787;44.594;11.046;2022-10-31T18:21:50;25.88;;;13.27;;
42124;SDS011;27787;44.594;11.046;2022-10-31T18:24:34;37.13;;;14.00;;
42124;SDS011;27787;44.594;11.046;2022-10-31T18:27:18;34.33;;;13.80;;
42124;SDS011;27787;44.594;11.046;2022-10-31T18:30:02;38.80;;;12.88;;
42124;SDS011;27787;44.594;11.046;2022-10-31T18:32:50;34.42;;;14.30;;
42124;SDS011;27787;44.594;11.046;2022-10-31T18:35:35;43.15;;;14.35;;
42124;SDS011;27787;44.594;11.046;2022-10-31T18:38:21;42.70;;;13.57;;
42124;SDS011;27787;44.594;11.046;2022-10-31T18:41:06;37.05;;;13.30;;
42124;SDS011;27787;44.594;11.046;2022-10-31T18:43:51;35.67;;;13.45;;
42124;SDS011;27787;44.594;11.046;2022-10-31T18:46:40;39.28;;;14.15;;
42124;SDS011;27787;44.594;11.046;2022-10-31T18:52:09;31.95;;;13.43;;
42124;SDS011;27787;44.594;11.046;2022-10-31T18:54:53;52.78;;;15.40;;
42124;SDS011;27787;44.594;11.046;2022-10-31T18:57:37;31.10;;;12.77;;
42124;SDS011;27787;44.594;11.046;2022-10-31T19:00:21;34.13;;;13.60;;
42124;SDS011;27787;44.594;11.046;2022-10-31T19:03:05;32.38;;;12.43;;
42124;SDS011;27787;44.594;11.046;2022-10-31T19:05:49;39.00;;;15.40;;
42124;SDS011;27787;44.594;11.046;2022-10-31T19:08:37;31.27;;;14.15;;
42124;SDS011;27787;44.594;11.046;2022-10-31T19:14:06;30.92;;;13.45;;
42124;SDS011;27787;44.594;11.046;2022-10-31T19:16:53;27.27;;;13.18;;